Time;durP1;ratioP1;P1;durP2;ratioP2;P2;SDS_P1;SDS_P2;PMS_P1;PMS_P2;Temp;Humidity;BMP_temperature;BMP_pressure;BME280_temperature;BME280_humidity;BME280_pressure;Samples;Min_cycle;Max_cycle;Signal;HPM_P1;HPM_P2
2022/09/19 00:01:35;;;;;;;2.28;0.80;;;;;;;14.08;62.11;100918.47;5065309;28;20709;-53
2022/09/19 00:04:06;;;;;;;0.82;0.50;;;;;;;14.06;61.98;100928.88;5063589;28;20638;-50
2022/09/19 00:06:36;;;;;;;3.17;0.70;;;;;;;14.04;61.32;100928.00;5063243;28;20048;-52
2022/09/19 00:09:05;;;;;;;1.13;0.50;;;;;;;14.02;62.44;100919.34;5064317;28;20041;-48
2022/09/19 00:11:33;;;;;;;1.98;0.55;;;;;;;14.00;61.73;100927.16;5062599;28;20144;-50
2022/09/19 00:14:01;;;;;;;1.27;0.47;;;;;;;13.98;61.67;100921.06;5065200;28;20052;-50
2022/09/19 00:16:31;;;;;;;2.60;0.82;;;;;;;13.98;62.05;100928.00;5066536;28;20078;-50
2022/09/19 00:19:01;;;;;;;1.02;0.50;;;;;;;13.96;62.19;100927.16;5062553;28;20045;-50
2022/09/19 00:21:31;;;;;;;3.00;0.40;;;;;;;13.94;63.04;100921.09;5067631;28;20127;-51
2022/09/19 00:26:45;;;;;;;0.73;0.35;;;;;;;13.89;62.22;100923.72;5041968;28;20635;-48
2022/09/19 00:29:15;;;;;;;1.42;0.50;;;;;;;13.90;62.08;100927.16;5044057;28;20072;-50
2022/09/19 00:31:43;;;;;;;4.40;0.77;;;;;;;13.86;62.49;100932.41;5044155;28;20045;-49
2022/09/19 00:34:10;;;;;;;1.42;0.60;;;;;;;13.84;62.51;100936.75;5060986;28;20051;-46
2022/09/19 00:36:38;;;;;;;1.33;0.63;;;;;;;13.83;62.92;100942.81;5044811;28;20047;-53
2022/09/19 00:39:07;;;;;;;1.95;0.70;;;;;;;13.81;62.49;100936.75;5044560;28;20040;-49
2022/09/19 00:41:36;;;;;;;1.40;0.50;;;;;;;13.79;62.24;100935.91;5048966;28;20072;-48
2022/09/19 00:44:25;;;;;;;1.00;0.40;;;;;;;13.78;62.42;100936.75;5060709;28;20129;-49
2022/09/19 00:46:59;;;;;;;3.78;0.45;;;;;;;13.77;62.19;100931.56;5062960;28;20052;-48
2022/09/19 00:49:29;;;;;;;1.17;0.88;;;;;;;13.74;62.72;100937.63;5058028;28;20158;-53
2022/09/19 00:52:00;;;;;;;1.42;0.43;;;;;;;13.74;62.28;100945.44;5061978;28;20155;-48
2022/09/19 00:54:32;;;;;;;1.98;0.43;;;;;;;13.72;61.78;100947.19;5064551;28;20754;-50
2022/09/19 00:57:00;;;;;;;2.08;0.30;;;;;;;13.70;62.30;100948.91;5064569;28;20045;-48
2022/09/19 00:59:29;;;;;;;1.08;0.35;;;;;;;13.68;62.14;100940.25;5060695;28;20041;-53
2022/09/19 01:01:57;;;;;;;1.00;0.20;;;;;;;13.65;62.67;100945.44;5064514;28;20048;-51
2022/09/19 01:04:29;;;;;;;0.85;0.40;;;;;;;13.62;61.63;100949.78;5063867;28;20052;-50
2022/09/19 01:17:48;;;;;;;1.35;1.17;;;;;;;13.52;61.09;100944.59;5052978;28;20403;-49
2022/09/19 01:28:29;;;;;;;1.30;1.20;;;;;;;13.54;61.72;100948.06;5095471;27;20398;-49
2022/09/19 01:33:39;;;;;;;0.50;0.45;;;;;;;13.54;61.73;100945.47;5020249;27;20411;-46
2022/09/19 01:36:09;;;;;;;0.93;0.22;;;;;;;13.52;61.08;100937.66;5003745;28;20082;-51
2022/09/19 01:38:38;;;;;;;0.60;0.20;;;;;;;13.52;60.69;100945.47;5003302;28;20458;-46
2022/09/19 01:41:08;;;;;;;3.28;0.40;;;;;;;13.51;61.33;100943.72;5001707;28;20048;-46
2022/09/19 01:43:34;;;;;;;0.82;0.30;;;;;;;13.51;61.45;100946.31;5018093;28;20137;-46
2022/09/19 01:46:11;;;;;;;1.02;0.20;;;;;;;13.51;61.44;100945.47;5017557;28;20605;-47
2022/09/19 01:48:51;;;;;;;4.93;0.50;;;;;;;13.47;60.89;100936.75;4996135;28;20064;-46
2022/09/19 01:57:07;;;;;;;0.40;0.28;;;;;;;13.43;61.56;100940.22;5042640;27;20411;-49
2022/09/19 02:02:23;;;;;;;0.30;0.13;;;;;;;13.42;61.35;100933.28;5055190;27;20411;-51
2022/09/19 02:10:18;;;;;;;0.90;0.30;;;;;;;13.40;61.43;100941.09;5074031;27;20407;-46
2022/09/19 02:12:50;;;;;;;1.23;0.20;;;;;;;13.41;60.98;100934.16;5016024;27;20436;-50
2022/09/19 02:15:20;;;;;;;0.40;0.30;;;;;;;13.39;61.06;100938.47;5011114;28;20092;-50
2022/09/19 02:17:55;;;;;;;0.77;0.30;;;;;;;13.37;61.55;100931.56;5021856;28;20144;-50
2022/09/19 02:20:27;;;;;;;0.93;0.35;;;;;;;13.37;62.07;100936.75;5020063;28;20545;-50
2022/09/19 02:23:01;;;;;;;0.90;0.63;;;;;;;13.34;61.02;100936.75;5015835;28;20124;-48
2022/09/19 02:25:33;;;;;;;2.05;0.30;;;;;;;13.34;61.22;100931.56;5022918;28;20072;-51
2022/09/19 02:28:08;;;;;;;0.68;0.30;;;;;;;13.32;62.18;100935.03;5015100;28;20049;-49
2022/09/19 02:30:36;;;;;;;0.82;0.70;;;;;;;13.31;61.63;100931.53;5018246;28;20045;-52
2022/09/19 02:33:07;;;;;;;1.60;0.50;;;;;;;13.29;61.15;100930.69;5018139;28;20144;-48
2022/09/19 02:41:21;;;;;;;3.05;1.80;;;;;;;13.27;61.03;100929.81;5059136;28;20420;-53
2022/09/19 02:46:37;;;;;;;1.00;0.30;;;;;;;13.23;61.05;100930.69;5022631;27;20402;-51
2022/09/19 02:51:47;;;;;;;1.33;0.55;;;;;;;13.21;61.07;100932.44;5054542;27;20399;-48
2022/09/19 02:54:19;;;;;;;1.45;1.27;;;;;;;13.21;61.67;100924.63;5040498;28;20073;-50
2022/09/19 02:56:49;;;;;;;0.52;0.52;;;;;;;13.21;60.93;100924.63;5047026;28;20138;-50
2022/09/19 02:59:23;;;;;;;1.98;0.35;;;;;;;13.19;61.09;100922.03;5059053;28;20153;-51
2022/09/19 03:01:57;;;;;;;2.17;0.73;;;;;;;13.18;60.97;100917.69;5059911;28;20044;-46
2022/09/19 03:04:31;;;;;;;4.32;1.00;;;;;;;13.18;61.42;100922.00;5061515;28;20057;-51
2022/09/19 03:09:33;;;;;;;2.30;0.38;;;;;;;13.14;61.12;100915.94;5036546;27;20402;-51
2022/09/19 03:14:45;;;;;;;0.95;0.45;;;;;;;13.11;61.79;100919.41;5043537;28;20417;-52
2022/09/19 03:17:16;;;;;;;2.47;0.60;;;;;;;13.09;60.71;100921.16;5022010;28;20449;-52
2022/09/19 03:19:47;;;;;;;1.58;0.52;;;;;;;13.06;61.30;100926.34;5020783;28;20052;-50
2022/09/19 03:22:14;;;;;;;3.35;0.47;;;;;;;13.04;61.15;100917.66;5018775;28;20144;-50
2022/09/19 03:24:42;;;;;;;1.33;0.40;;;;;;;13.04;61.61;100922.84;5017041;28;20136;-47
2022/09/19 03:27:09;;;;;;;2.20;0.65;;;;;;;13.01;61.81;100922.88;5019051;28;20057;-53
2022/09/19 03:29:36;;;;;;;1.60;0.50;;;;;;;13.00;61.42;100925.47;5022914;28;20537;-49
2022/09/19 03:32:03;;;;;;;1.25;0.38;;;;;;;12.99;62.18;100924.59;5022741;28;20096;-49
2022/09/19 03:34:32;;;;;;;2.13;0.40;;;;;;;12.98;61.47;100925.47;5021443;28;20037;-50
2022/09/19 03:36:59;;;;;;;2.97;0.55;;;;;;;12.96;62.41;100925.47;5018685;28;20038;-52
2022/09/19 03:39:26;;;;;;;1.60;0.50;;;;;;;12.93;62.29;100934.97;5022252;28;20175;-47
2022/09/19 03:41:53;;;;;;;2.00;0.45;;;;;;;12.92;62.31;100930.66;5016268;28;20136;-52
2022/09/19 03:44:20;;;;;;;2.38;0.60;;;;;;;12.92;62.68;100928.03;5023267;28;20080;-47
2022/09/19 03:46:47;;;;;;;3.70;0.70;;;;;;;12.90;61.50;100930.63;5022320;28;20136;-51
2022/09/19 03:49:14;;;;;;;0.80;0.50;;;;;;;12.91;61.75;100934.13;5021816;28;20042;-50
2022/09/19 03:51:43;;;;;;;1.67;0.40;;;;;;;12.90;62.64;100935.84;5030171;28;20071;-50
2022/09/19 03:54:09;;;;;;;2.70;0.75;;;;;;;12.88;62.22;100931.50;5033278;28;20041;-51
2022/09/19 03:56:36;;;;;;;6.60;0.90;;;;;;;12.85;61.49;100928.06;5022343;28;20552;-50
2022/09/19 03:59:03;;;;;;;2.17;0.63;;;;;;;12.85;61.74;100928.06;5020399;28;20049;-50
2022/09/19 04:01:29;;;;;;;2.72;0.43;;;;;;;12.83;61.45;100919.38;5020847;28;20045;-49
2022/09/19 04:03:56;;;;;;;1.30;0.43;;;;;;;12.82;62.36;100924.56;5016918;28;20050;-48
2022/09/19 04:06:23;;;;;;;2.50;0.88;;;;;;;12.80;62.47;100919.34;5013547;28;20573;-53
2022/09/19 04:08:49;;;;;;;2.50;0.65;;;;;;;12.78;61.87;100923.69;5020428;28;20077;-54
2022/09/19 04:11:16;;;;;;;1.33;1.17;;;;;;;12.79;61.70;100927.16;5017995;28;20051;-49
2022/09/19 04:13:42;;;;;;;2.35;0.40;;;;;;;12.78;61.74;100935.81;5018192;28;20128;-51
2022/09/19 04:16:10;;;;;;;0.80;0.40;;;;;;;12.77;62.55;100939.28;5018180;28;20045;-49
2022/09/19 04:18:41;;;;;;;2.60;0.55;;;;;;;12.76;61.94;100935.81;5020323;28;20061;-49
2022/09/19 04:21:08;;;;;;;1.10;0.50;;;;;;;12.75;62.55;100936.69;5018862;28;20092;-49
2022/09/19 04:23:34;;;;;;;1.60;0.70;;;;;;;12.74;62.80;100934.97;5017321;28;20816;-50
2022/09/19 04:26:04;;;;;;;3.53;1.42;;;;;;;12.73;62.46;100944.47;5010606;28;20181;-51
2022/09/19 04:28:31;;;;;;;2.03;0.77;;;;;;;12.71;61.58;100942.75;5025005;28;20041;-49
2022/09/19 04:30:57;;;;;;;4.13;0.63;;;;;;;12.71;62.75;100940.16;5009827;28;20049;-50
2022/09/19 04:33:25;;;;;;;3.80;0.60;;;;;;;12.70;61.75;100946.22;5003086;28;20096;-49
2022/09/19 04:35:52;;;;;;;1.48;0.73;;;;;;;12.68;62.89;100956.59;5003483;28;20060;-51
2022/09/19 04:38:19;;;;;;;4.68;0.93;;;;;;;12.69;62.26;100953.13;5008912;28;20116;-53
2022/09/19 04:40:48;;;;;;;4.88;0.98;;;;;;;12.68;62.47;100950.53;5024880;28;20054;-53
2022/09/19 04:43:18;;;;;;;1.40;0.65;;;;;;;12.69;62.73;100949.66;5009090;28;20086;-49
2022/09/19 04:45:48;;;;;;;1.55;0.40;;;;;;;12.67;62.87;100943.59;5003259;28;20545;-48
2022/09/19 04:48:16;;;;;;;2.72;0.82;;;;;;;12.68;62.30;100945.31;5001483;28;20048;-49
2022/09/19 04:50:50;;;;;;;2.83;0.65;;;;;;;12.68;63.05;100950.53;5001182;28;20116;-47
2022/09/19 04:53:19;;;;;;;1.20;0.50;;;;;;;12.67;62.04;100949.66;5003968;28;20124;-46
2022/09/19 04:55:49;;;;;;;3.72;0.55;;;;;;;12.68;62.45;100946.22;5024838;28;20140;-48
2022/09/19 04:58:16;;;;;;;1.75;0.63;;;;;;;12.68;61.94;100945.31;5023428;28;20085;-49
2022/09/19 05:00:45;;;;;;;2.30;0.80;;;;;;;12.69;62.08;100947.06;5009377;28;20057;-45
2022/09/19 05:03:15;;;;;;;1.63;0.43;;;;;;;12.68;62.31;100950.53;5007019;28;20060;-52
2022/09/19 05:05:44;;;;;;;2.88;0.68;;;;;;;12.69;62.48;100952.25;5001819;28;20054;-46
2022/09/19 05:08:15;;;;;;;6.57;0.70;;;;;;;12.70;62.28;100954.00;5003111;28;20237;-52
2022/09/19 05:10:42;;;;;;;4.00;1.02;;;;;;;12.69;62.17;100941.84;5007538;28;20081;-52
2022/09/19 05:13:12;;;;;;;2.15;2.03;;;;;;;12.70;62.34;100946.22;5008469;28;20624;-50
2022/09/19 05:15:41;;;;;;;2.70;0.50;;;;;;;12.70;63.04;100948.81;5007765;28;20145;-47
2022/09/19 05:18:10;;;;;;;3.53;0.82;;;;;;;12.70;63.08;100943.63;5006700;28;20054;-50
2022/09/19 05:20:38;;;;;;;2.15;0.88;;;;;;;12.71;62.06;100945.34;5002662;28;20141;-49
2022/09/19 05:23:05;;;;;;;2.25;1.05;;;;;;;12.70;62.30;100948.81;5004317;28;20144;-47
2022/09/19 05:25:37;;;;;;;1.08;0.60;;;;;;;12.69;62.79;100947.06;5019764;28;20076;-47
2022/09/19 05:28:06;;;;;;;1.45;0.60;;;;;;;12.68;62.58;100945.31;5010321;28;20042;-47
2022/09/19 05:30:34;;;;;;;1.33;0.65;;;;;;;12.68;62.39;100950.53;5006326;28;20081;-51
2022/09/19 05:33:02;;;;;;;1.92;0.75;;;;;;;12.66;62.29;100952.28;5002213;28;20045;-48
2022/09/19 05:35:31;;;;;;;1.30;0.63;;;;;;;12.65;62.89;100951.38;5007588;28;20049;-51
2022/09/19 05:37:58;;;;;;;1.20;0.73;;;;;;;12.65;61.86;100954.00;5018517;28;20140;-51
2022/09/19 05:40:26;;;;;;;2.10;0.85;;;;;;;12.65;62.91;100960.91;5004083;28;20048;-52
2022/09/19 05:43:00;;;;;;;2.33;0.80;;;;;;;12.63;62.05;100963.50;5021775;28;20053;-50
2022/09/19 05:45:27;;;;;;;1.77;0.50;;;;;;;12.62;62.82;100971.28;5010058;28;20129;-53
2022/09/19 05:48:04;;;;;;;1.95;0.70;;;;;;;12.58;63.09;100966.09;5003932;28;20073;-50
2022/09/19 05:50:32;;;;;;;1.92;0.65;;;;;;;12.60;63.46;100974.75;5004519;28;20101;-52
2022/09/19 05:55:46;;;;;;;2.05;0.63;;;;;;;12.58;62.58;100973.03;5007297;28;20052;-52
2022/09/19 05:58:15;;;;;;;1.80;1.05;;;;;;;12.58;62.85;100976.50;5004544;28;20137;-48
2022/09/19 06:00:41;;;;;;;1.77;0.63;;;;;;;12.56;63.68;100967.81;5016105;28;20149;-52
2022/09/19 06:03:11;;;;;;;3.10;0.50;;;;;;;12.57;63.24;100979.94;5012486;28;20516;-49
2022/09/19 06:05:39;;;;;;;;;;;;;;;12.41;64.13;100980.75;5001924;28;20048;-46
2022/09/19 06:08:07;;;;;;;1.30;1.05;;;;;;;12.52;62.80;100985.97;5003468;28;19925;-49
2022/09/19 06:10:38;;;;;;;4.75;0.73;;;;;;;12.55;63.43;100991.19;5000265;28;20057;-50
2022/09/19 06:13:08;;;;;;;1.42;0.50;;;;;;;12.55;63.09;100993.78;5002239;28;20142;-51
2022/09/19 06:15:35;;;;;;;1.45;0.82;;;;;;;12.53;62.88;100996.38;5047676;28;20042;-52
2022/09/19 06:18:02;;;;;;;1.17;0.63;;;;;;;12.53;63.02;100993.78;5014317;28;20060;-48
2022/09/19 06:20:28;;;;;;;4.03;1.00;;;;;;;12.54;62.69;100990.34;5006454;28;20180;-48
2022/09/19 06:23:01;;;;;;;2.67;1.10;;;;;;;12.53;63.27;100996.38;5021138;28;20140;-50
2022/09/19 06:25:30;;;;;;;3.45;1.15;;;;;;;12.56;62.85;100999.00;5003791;28;20054;-45
2022/09/19 06:28:00;;;;;;;1.55;0.73;;;;;;;12.56;63.56;100993.78;4987225;28;20085;-52
2022/09/19 06:30:27;;;;;;;3.85;0.82;;;;;;;12.57;63.06;100987.72;5003457;28;20045;-49
2022/09/19 06:32:54;;;;;;;2.85;1.15;;;;;;;12.58;63.30;100997.28;5002156;28;20053;-52
2022/09/19 06:35:23;;;;;;;1.75;1.00;;;;;;;12.57;64.08;100992.94;5002251;28;20045;-50
2022/09/19 06:37:49;;;;;;;5.40;1.02;;;;;;;12.58;63.64;100992.09;5002534;28;20132;-50
2022/09/19 06:40:22;;;;;;;5.45;1.58;;;;;;;12.60;63.97;100992.09;5004840;28;20108;-47
2022/09/19 06:42:49;;;;;;;2.03;0.88;;;;;;;12.62;63.47;100997.28;5004970;28;20137;-50
2022/09/19 06:45:16;;;;;;;12.15;2.72;;;;;;;12.63;64.05;100988.63;5011683;28;20045;-49
2022/09/19 06:47:42;;;;;;;7.30;2.35;;;;;;;12.64;64.05;101000.75;5009530;28;20046;-50
2022/09/19 06:50:11;;;;;;;3.22;0.95;;;;;;;12.67;63.32;101006.81;4999716;28;20046;-51
2022/09/19 06:52:37;;;;;;;3.13;1.08;;;;;;;12.68;63.12;101005.09;4994213;28;20145;-53
2022/09/19 06:55:04;;;;;;;3.95;1.40;;;;;;;12.71;63.21;101002.53;4997430;28;20042;-51
2022/09/19 06:57:31;;;;;;;3.95;1.13;;;;;;;12.73;64.52;101011.19;5011530;28;20072;-48
2022/09/19 06:59:57;;;;;;;5.47;1.25;;;;;;;12.73;64.06;101006.88;5010350;28;20069;-52
2022/09/19 07:02:24;;;;;;;5.50;1.00;;;;;;;12.75;63.75;101009.47;4994744;28;20125;-54
2022/09/19 07:04:51;;;;;;;6.57;1.85;;;;;;;12.77;63.22;101002.53;4996375;28;20442;-51
2022/09/19 07:07:17;;;;;;;25.42;8.50;;;;;;;12.80;64.09;101004.31;4996779;28;20455;-50
2022/09/19 07:09:44;;;;;;;26.33;8.75;;;;;;;12.83;63.45;101009.47;5012088;28;20181;-51
2022/09/19 07:12:10;;;;;;;15.98;5.40;;;;;;;12.87;64.16;101007.78;5010114;28;20046;-52
2022/09/19 07:14:42;;;;;;;12.38;3.78;;;;;;;12.90;63.61;101007.78;4994310;28;20070;-49
2022/09/19 07:17:08;;;;;;;33.60;10.75;;;;;;;12.92;63.58;101011.25;5002662;28;20042;-50
2022/09/19 07:19:35;;;;;;;15.23;4.53;;;;;;;12.94;63.60;101015.59;5001408;28;20129;-51
2022/09/19 07:22:01;;;;;;;17.95;6.28;;;;;;;12.96;63.88;101013.00;5019318;28;20038;-53
2022/09/19 07:24:28;;;;;;;39.67;11.90;;;;;;;12.98;63.76;101006.94;5003370;28;20038;-51
2022/09/19 07:26:54;;;;;;;26.38;8.75;;;;;;;13.02;63.99;101015.63;5002638;28;20078;-50
2022/09/19 07:29:21;;;;;;;18.08;5.78;;;;;;;13.05;63.98;101015.63;5000761;28;20069;-50
2022/09/19 07:31:48;;;;;;;33.95;10.73;;;;;;;13.09;63.37;101008.69;5002188;28;20061;-52
2022/09/19 07:34:14;;;;;;;26.73;8.73;;;;;;;13.11;64.29;101007.84;4999885;28;20048;-53
2022/09/19 07:36:41;;;;;;;17.98;6.93;;;;;;;13.15;63.81;101018.25;5000414;28;20047;-47
2022/09/19 07:39:09;;;;;;;8.43;2.92;;;;;;;13.18;63.36;101020.84;5000501;28;20145;-53
2022/09/19 07:41:36;;;;;;;5.80;2.33;;;;;;;13.21;63.92;101013.06;4999583;28;20160;-51
2022/09/19 07:44:03;;;;;;;8.45;2.88;;;;;;;13.24;63.72;101018.25;5000591;28;20043;-48
2022/09/19 07:46:29;;;;;;;11.13;4.00;;;;;;;13.28;63.79;101019.16;5019818;28;20045;-53
2022/09/19 07:48:56;;;;;;;8.10;3.97;;;;;;;13.30;63.55;101018.28;5000435;28;20128;-48
2022/09/19 07:51:22;;;;;;;6.95;2.70;;;;;;;13.34;62.96;101027.81;5003418;28;20532;-48
2022/09/19 07:53:51;;;;;;;5.00;1.70;;;;;;;13.36;63.06;101023.50;5006028;28;20050;-52
2022/09/19 07:56:17;;;;;;;18.52;5.22;;;;;;;13.40;63.74;101028.72;4997904;28;20161;-50
2022/09/19 07:58:44;;;;;;;26.85;7.80;;;;;;;13.43;63.18;101029.56;4997287;28;20145;-52
2022/09/19 08:01:10;;;;;;;20.25;5.78;;;;;;;13.47;63.17;101035.63;5003217;28;21175;-53
2022/09/19 08:03:37;;;;;;;10.68;2.45;;;;;;;13.50;64.00;101035.69;5005103;28;20055;-47
2022/09/19 08:06:04;;;;;;;14.13;5.30;;;;;;;13.55;63.83;101033.09;5000522;28;20128;-50
2022/09/19 08:08:30;;;;;;;24.13;9.10;;;;;;;13.58;63.31;101039.16;5009521;28;20049;-48
2022/09/19 08:11:00;;;;;;;31.50;10.93;;;;;;;13.65;63.97;101041.78;5023278;28;20057;-50
2022/09/19 08:13:29;;;;;;;7.60;2.53;;;;;;;13.68;62.91;101039.16;5005299;28;20080;-51
2022/09/19 08:15:55;;;;;;;16.92;6.38;;;;;;;13.72;63.29;101038.31;5003951;28;20053;-51
2022/09/19 08:18:28;;;;;;;18.48;6.90;;;;;;;13.77;63.61;101044.38;5001883;28;20052;-49
2022/09/19 08:20:55;;;;;;;11.88;4.20;;;;;;;13.85;63.05;101047.84;4999027;28;20078;-51
2022/09/19 08:23:22;;;;;;;3.17;1.83;;;;;;;13.91;63.42;101046.97;4999254;28;20471;-51
2022/09/19 08:25:50;;;;;;;4.13;1.85;;;;;;;13.94;62.98;101053.91;5003589;28;20038;-53
2022/09/19 08:28:20;;;;;;;5.13;1.67;;;;;;;13.98;63.18;101053.03;5002099;28;20100;-53
2022/09/19 08:30:47;;;;;;;3.03;1.17;;;;;;;14.02;63.23;101065.22;5004213;28;20534;-50
2022/09/19 08:33:15;;;;;;;1.52;0.77;;;;;;;14.06;62.99;101064.34;4999925;28;20042;-53
2022/09/19 08:35:42;;;;;;;4.30;0.98;;;;;;;14.11;63.00;101069.53;5002100;28;20069;-49
2022/09/19 08:38:11;;;;;;;1.90;1.23;;;;;;;14.17;62.60;101071.25;5002953;28;20050;-52
2022/09/19 08:43:26;;;;;;;5.00;2.17;;;;;;;14.30;62.90;101080.81;5011227;27;20437;-50
2022/09/19 08:51:39;;;;;;;1.85;0.85;;;;;;;14.57;61.80;101075.53;5029879;28;20463;-51
2022/09/19 08:54:12;;;;;;;1.92;0.57;;;;;;;14.61;61.91;101082.47;5009563;28;20679;-52
2022/09/19 08:56:41;;;;;;;1.65;0.63;;;;;;;14.65;61.97;101086.78;4999485;28;20046;-54
2022/09/19 08:59:14;;;;;;;2.72;0.80;;;;;;;14.72;61.42;101082.41;5004426;28;20056;-48
2022/09/19 09:01:43;;;;;;;3.05;0.68;;;;;;;14.77;61.41;101080.72;5009093;28;20590;-49
2022/09/19 09:15:22;;;;;;;2.75;1.05;;;;;;;15.68;58.92;101084.53;5053117;28;20418;-51
2022/09/19 09:21:27;;;;;;;7.05;3.92;;;;;;;15.93;59.21;101091.31;5078216;27;20394;-46
2022/09/19 09:24:02;;;;;;;9.57;3.58;;;;;;;16.06;58.95;101086.91;5077858;28;20044;-49
2022/09/19 09:26:54;;;;;;;2.60;1.13;;;;;;;16.19;58.52;101083.28;5075997;28;20054;-51
2022/09/19 09:29:29;;;;;;;6.20;0.70;;;;;;;16.28;57.42;101078.88;5075634;28;20487;-52
2022/09/19 09:34:41;;;;;;;2.75;0.82;;;;;;;16.56;57.08;101078.56;5098672;27;20506;-52
2022/09/19 09:37:31;;;;;;;0.65;0.22;;;;;;;16.78;56.47;101080.91;5023200;28;20048;-49
2022/09/19 09:41:45;;;;;;;2.30;1.23;;;;;;;17.02;56.07;101086.75;5018743;28;21384;-52
2022/09/19 09:43:16;;;;;;;1.45;0.80;;;;;;;17.21;55.67;101079.53;4989994;28;20054;-51
2022/09/19 09:45:46;;;;;;;2.08;0.95;;;;;;;17.34;55.79;101085.47;5010217;28;20497;-50
2022/09/19 09:51:13;;;;;;;1.67;0.82;;;;;;;17.58;54.44;101088.59;5025725;28;20910;-52
2022/09/19 10:04:48;;;;;;;1.73;0.57;;;;;;;17.71;53.52;101084.91;5054852;28;20123;-48
2022/09/19 10:09:58;;;;;;;1.13;0.45;;;;;;;17.90;53.75;101073.25;5031451;27;20413;-49
2022/09/19 10:12:32;;;;;;;1.20;0.40;;;;;;;17.98;53.71;101067.00;5017393;28;20049;-51
2022/09/19 10:15:21;;;;;;;1.80;0.40;;;;;;;18.10;53.87;101081.66;5017811;28;20049;-49
2022/09/19 10:18:05;;;;;;;1.65;1.13;;;;;;;18.21;53.25;101085.88;5023224;28;20141;-53
2022/09/19 10:20:35;;;;;;;1.90;0.50;;;;;;;18.35;53.14;101080.34;5018059;28;20050;-52
2022/09/19 10:23:02;;;;;;;1.83;0.50;;;;;;;18.42;52.57;101076.72;5023677;28;20836;-49
2022/09/19 10:25:30;;;;;;;3.05;0.50;;;;;;;18.55;53.22;101079.97;5021250;28;20053;-51
2022/09/19 10:28:15;;;;;;;2.03;1.10;;;;;;;18.77;52.55;101073.44;5023117;28;20719;-50
2022/09/19 10:30:55;;;;;;;1.15;0.50;;;;;;;18.98;52.10;101080.84;5023314;28;20054;-51
2022/09/19 10:33:39;;;;;;;3.70;0.77;;;;;;;19.15;51.45;101082.25;5021267;28;20079;-47
2022/09/19 10:36:19;;;;;;;6.10;1.67;;;;;;;19.23;51.80;101082.97;5016638;28;20050;-49
2022/09/19 10:38:58;;;;;;;6.88;1.30;;;;;;;19.23;51.21;101080.34;5021352;28;20046;-47
2022/09/19 10:41:27;;;;;;;3.70;1.17;;;;;;;19.12;50.96;101085.81;5024207;28;20058;-49
2022/09/19 10:43:57;;;;;;;1.80;0.70;;;;;;;18.97;50.91;101087.00;5027909;28;20056;-47
2022/09/19 10:46:35;;;;;;;2.42;1.13;;;;;;;18.85;50.95;101082.00;4995528;28;20129;-48
2022/09/19 10:49:13;;;;;;;2.97;0.65;;;;;;;18.81;51.76;101078.56;4995758;28;20093;-52
2022/09/19 10:51:46;;;;;;;1.95;0.65;;;;;;;18.78;52.01;101077.78;4989230;28;20066;-52
2022/09/19 10:54:36;;;;;;;1.23;0.75;;;;;;;18.69;52.35;101068.34;4996990;28;20071;-50
2022/09/19 10:57:24;;;;;;;1.98;0.45;;;;;;;18.69;51.92;101069.22;4990709;28;20225;-50
2022/09/19 10:59:52;;;;;;;5.30;2.63;;;;;;;18.67;51.97;101076.22;4993741;28;20419;-54
2022/09/19 11:02:24;;;;;;;4.88;1.52;;;;;;;18.61;51.71;101069.34;4992578;28;20180;-51
2022/09/19 11:04:56;;;;;;;11.77;3.70;;;;;;;18.61;52.04;101066.72;4982177;28;20384;-50
2022/09/19 11:07:26;;;;;;;5.10;1.38;;;;;;;18.62;52.04;101072.84;4986440;28;20050;-47
2022/09/19 11:09:59;;;;;;;6.43;1.77;;;;;;;18.65;52.88;101067.53;4993083;28;20541;-47
2022/09/19 11:12:30;;;;;;;7.82;2.33;;;;;;;18.65;52.41;101074.53;4991917;28;21630;-51
2022/09/19 11:14:58;;;;;;;3.20;1.05;;;;;;;18.67;51.89;101075.38;4995474;28;20056;-49
2022/09/19 11:31:36;;;;;;;2.45;1.23;;;;;;;19.42;51.86;101063.31;5016034;27;20403;-50
2022/09/19 11:34:40;;;;;;;2.22;1.05;;;;;;;19.52;52.00;101068.28;5006668;28;20068;-53
2022/09/19 11:37:56;;;;;;;4.32;1.27;;;;;;;19.58;52.02;101067.28;5017110;28;20056;-51
2022/09/19 11:46:24;;;;;;;4.45;2.47;;;;;;;20.17;50.32;101062.34;5062664;27;20415;-50
2022/09/19 11:54:58;;;;;;;3.63;1.88;;;;;;;20.12;50.80;101053.69;5039531;27;20421;-49
2022/09/19 12:00:40;;;;;;;5.07;3.05;;;;;;;20.16;51.11;101044.81;5072537;27;20395;-50
2022/09/19 12:03:19;;;;;;;3.58;2.75;;;;;;;20.17;50.72;101051.81;5037944;28;20150;-49
2022/09/19 12:11:08;;;;;;;3.75;2.15;;;;;;;20.16;50.92;101044.81;5060868;28;20399;-53
2022/09/19 12:16:20;;;;;;;5.82;2.08;;;;;;;19.92;51.29;101047.16;5027320;28;20417;-51
2022/09/19 12:18:58;;;;;;;3.40;1.45;;;;;;;19.88;51.30;101050.78;5024297;28;20115;-52
2022/09/19 12:21:37;;;;;;;7.10;2.78;;;;;;;19.83;51.81;101043.03;5023178;28;20048;-50
2022/09/19 12:35:01;;;;;;;5.15;3.30;;;;;;;19.96;50.94;101025.16;5056545;28;20407;-53
2022/09/19 12:43:27;;;;;;;5.20;2.20;;;;;;;19.76;51.87;101025.69;5063192;28;20410;-48
2022/09/19 12:46:09;;;;;;;4.03;2.00;;;;;;;19.71;51.69;101023.16;5024322;28;20070;-48
2022/09/19 12:51:37;;;;;;;5.53;3.78;;;;;;;19.62;52.11;101028.66;5042813;27;20394;-48
2022/09/19 12:56:46;;;;;;;4.68;2.17;;;;;;;19.53;51.84;101029.75;5092482;27;20411;-48
2022/09/19 12:59:18;;;;;;;5.30;2.10;;;;;;;19.41;51.90;101025.66;5055621;28;20115;-51
2022/09/19 13:07:31;;;;;;;6.32;2.42;;;;;;;19.11;52.41;101025.47;5059590;27;20407;-47
2022/09/19 13:15:26;;;;;;;7.05;3.38;;;;;;;18.97;53.16;101026.63;5079245;27;20398;-47
2022/09/19 13:23:35;;;;;;;5.80;3.78;;;;;;;18.60;54.88;101035.28;5059678;28;20049;-47
2022/09/19 13:26:24;;;;;;;7.78;4.03;;;;;;;18.38;55.78;101035.72;5043520;28;20045;-45
2022/09/19 13:28:53;;;;;;;7.18;2.58;;;;;;;18.33;55.93;101037.53;5062739;28;20404;-50
2022/09/19 13:31:25;;;;;;;6.30;3.60;;;;;;;18.23;57.05;101037.75;5060895;28;20135;-49
2022/09/19 13:33:57;;;;;;;5.63;3.35;;;;;;;18.08;57.49;101038.00;5060662;28;20037;-51
2022/09/19 13:39:00;;;;;;;7.25;4.60;;;;;;;18.34;59.34;101041.91;5037671;28;20410;-48
2022/09/19 13:41:41;;;;;;;6.15;3.53;;;;;;;17.98;59.50;101035.56;5020227;28;20141;-50
2022/09/19 13:44:28;;;;;;;4.85;2.97;;;;;;;17.83;59.87;101033.16;5015904;28;20042;-47
2022/09/19 13:52:30;;;;;;;6.28;2.88;;;;;;;17.72;60.13;101036.84;5064295;27;20376;-55
2022/09/19 13:55:09;;;;;;;5.90;2.10;;;;;;;17.66;60.10;101034.34;5021784;28;20149;-50
2022/09/19 13:57:39;;;;;;;5.03;2.60;;;;;;;17.59;60.15;101024.84;5006499;28;20501;-48
2022/09/19 14:00:29;;;;;;;3.90;1.75;;;;;;;17.62;61.08;101024.78;5018945;28;20056;-47
2022/09/19 14:03:06;;;;;;;4.63;2.00;;;;;;;17.66;60.19;101023.00;5019239;28;20069;-49
2022/09/19 14:05:40;;;;;;;4.00;2.13;;;;;;;17.79;60.94;101013.16;5012925;28;20489;-46
2022/09/19 14:08:30;;;;;;;4.47;2.15;;;;;;;17.82;60.46;101023.59;5018693;28;20529;-44
2022/09/19 14:11:30;;;;;;;4.68;2.03;;;;;;;17.97;61.48;101022.47;5012308;28;20050;-49
2022/09/19 14:13:57;;;;;;;5.63;2.42;;;;;;;18.07;60.46;101023.16;5018256;28;20045;-49
2022/09/19 14:16:30;;;;;;;3.85;2.17;;;;;;;18.11;61.03;101024.88;5013115;28;20132;-51
2022/09/19 14:18:58;;;;;;;4.55;1.80;;;;;;;18.16;60.29;101023.00;5014479;28;20041;-49
2022/09/19 14:24:35;;;;;;;4.70;3.22;;;;;;;18.09;60.73;101021.41;5036157;27;20410;-47
2022/09/19 14:30:01;;;;;;;4.13;2.47;;;;;;;18.03;60.91;101024.97;5086063;27;20408;-49
2022/09/19 14:32:40;;;;;;;4.80;2.35;;;;;;;17.99;60.89;101023.28;5063585;28;20594;-47
2022/09/19 14:35:30;;;;;;;2.85;1.90;;;;;;;17.89;60.64;101027.84;5060751;28;20064;-51
2022/09/19 14:51:51;;;;;;;3.72;1.88;;;;;;;17.59;61.04;101022.22;5040217;27;20908;-48
2022/09/19 14:54:31;;;;;;;4.28;1.63;;;;;;;17.58;61.53;101024.00;5024403;28;20049;-45
2022/09/19 14:57:03;;;;;;;4.38;1.42;;;;;;;17.58;61.09;101025.72;5022162;28;20597;-52
2022/09/19 14:59:34;;;;;;;3.40;1.70;;;;;;;17.59;61.46;101024.84;5024278;28;20156;-50
2022/09/19 15:02:15;;;;;;;2.88;1.52;;;;;;;17.58;62.14;101020.50;5020729;28;20450;-46
2022/09/19 15:04:44;;;;;;;4.85;2.00;;;;;;;17.58;62.59;101015.25;5024642;28;20051;-53
2022/09/19 15:07:11;;;;;;;2.88;1.58;;;;;;;17.58;62.38;101015.25;5023263;28;20116;-50